Time;durP1;ratioP1;P1;durP2;ratioP2;P2;SDS_P1;SDS_P2;PMS_P1;PMS_P2;Temp;Humidity;BMP_temperature;BMP_pressure;BME280_temperature;BME280_humidity;BME280_pressure;Samples;Min_cycle;Max_cycle;Signal;HPM_P1;HPM_P2
2023/10/05 00:01:45;;;;;;;9.65;3.75;;;14.50;98.70;;;;;;5067226;28;20028;-67
2023/10/05 00:03:58;;;;;;;7.43;3.28;;;14.40;98.90;;;;;;5060805;28;20131;-66
2023/10/05 00:06:24;;;;;;;7.25;2.67;;;14.50;98.90;;;;;;5063849;28;20140;-67
2023/10/05 00:08:54;;;;;;;8.70;3.35;;;14.40;98.90;;;;;;5067538;28;20039;-67
2023/10/05 00:11:29;;;;;;;6.32;3.28;;;14.40;98.90;;;;;;5063188;28;20044;-66
2023/10/05 00:14:06;;;;;;;7.13;3.25;;;14.40;99.00;;;;;;5066908;28;20033;-67
2023/10/05 00:16:37;;;;;;;7.88;3.30;;;14.30;98.90;;;;;;5061523;28;20098;-67
2023/10/05 00:19:12;;;;;;;11.48;3.45;;;14.40;99.00;;;;;;5067181;28;20124;-67
2023/10/05 00:21:50;;;;;;;6.45;3.40;;;14.30;99.00;;;;;;5058703;28;20138;-67
2023/10/05 00:24:29;;;;;;;9.50;3.60;;;14.30;99.20;;;;;;5066713;28;20151;-67
2023/10/05 00:26:56;;;;;;;5.38;2.67;;;14.30;99.30;;;;;;5059849;28;20032;-67
2023/10/05 00:29:28;;;;;;;8.68;3.45;;;14.30;99.20;;;;;;5067858;28;20028;-67
2023/10/05 00:32:00;;;;;;;6.95;3.72;;;14.30;99.10;;;;;;5066291;28;20063;-67
2023/10/05 00:34:30;;;;;;;8.88;3.58;;;14.30;99.10;;;;;;5067670;28;20512;-67
2023/10/05 00:36:59;;;;;;;6.53;2.80;;;14.40;99.10;;;;;;5066478;28;20035;-67
2023/10/05 00:39:29;;;;;;;6.22;3.22;;;14.30;99.00;;;;;;5067812;28;20420;-67
2023/10/05 00:42:15;;;;;;;13.10;3.80;;;14.30;99.20;;;;;;5067611;28;20032;-67
2023/10/05 00:44:42;;;;;;;8.88;3.95;;;14.30;99.10;;;;;;5051780;28;20028;-67
2023/10/05 00:47:12;;;;;;;9.98;2.83;;;14.30;99.30;;;;;;5056462;28;20079;-67
2023/10/05 00:49:45;;;;;;;9.00;3.50;;;14.30;99.10;;;;;;5058260;28;20039;-67
2023/10/05 00:52:15;;;;;;;9.02;3.13;;;14.30;99.20;;;;;;5063972;28;20757;-67
2023/10/05 00:54:50;;;;;;;10.55;3.50;;;14.30;99.30;;;;;;5067382;28;20074;-67
2023/10/05 00:57:19;;;;;;;8.63;3.13;;;14.30;99.20;;;;;;5064720;28;20024;-67
2023/10/05 00:59:54;;;;;;;10.77;3.55;;;14.30;99.30;;;;;;5067333;28;20035;-67
2023/10/05 01:02:21;;;;;;;8.45;3.22;;;14.20;99.20;;;;;;5066983;28;20036;-67
2023/10/05 01:12:43;;;;;;;11.10;3.42;;;14.10;99.90;;;;;;5065655;28;20136;-67
2023/10/05 01:15:15;;;;;;;7.07;2.97;;;14.10;99.60;;;;;;5065771;28;20052;-67
2023/10/05 01:17:41;;;;;;;9.52;2.75;;;14.10;99.60;;;;;;5065657;28;20079;-68
2023/10/05 01:22:40;;;;;;;10.45;3.30;;;14.20;99.60;;;;;;5062268;28;20024;-67
2023/10/05 01:25:07;;;;;;;11.65;3.15;;;14.20;99.60;;;;;;5066947;28;20534;-67
2023/10/05 01:27:35;;;;;;;9.10;3.58;;;14.20;99.60;;;;;;5066826;28;20756;-67
2023/10/05 01:30:03;;;;;;;5.75;3.20;;;14.20;99.60;;;;;;5065221;28;20044;-67
2023/10/05 01:32:29;;;;;;;10.95;3.60;;;14.20;99.60;;;;;;5066928;28;20036;-67
2023/10/05 01:34:55;;;;;;;13.18;3.05;;;14.20;99.60;;;;;;5066788;28;20741;-67
2023/10/05 01:37:26;;;;;;;6.82;2.80;;;14.10;99.60;;;;;;5066744;28;20032;-67
2023/10/05 01:39:52;;;;;;;6.95;2.70;;;14.20;99.50;;;;;;5066939;28;20028;-67
2023/10/05 01:42:19;;;;;;;7.22;2.95;;;14.10;99.40;;;;;;5062909;28;20041;-67
2023/10/05 01:44:48;;;;;;;6.93;2.80;;;14.10;99.50;;;;;;5066985;28;20028;-67
2023/10/05 01:47:15;;;;;;;8.35;2.90;;;14.00;99.60;;;;;;5061827;28;20741;-67
2023/10/05 01:49:42;;;;;;;6.80;2.90;;;13.90;99.70;;;;;;5064684;28;20427;-67
2023/10/05 01:52:09;;;;;;;12.75;3.38;;;14.00;99.70;;;;;;5065878;28;20032;-67
2023/10/05 01:54:43;;;;;;;6.53;2.45;;;14.00;99.70;;;;;;5064806;28;20028;-67
2023/10/05 01:57:09;;;;;;;12.55;3.00;;;14.00;99.60;;;;;;5066378;28;20098;-67
2023/10/05 01:59:37;;;;;;;9.82;2.83;;;14.00;99.60;;;;;;5064962;28;20027;-67
2023/10/05 02:02:15;;;;;;;7.78;2.50;;;14.00;99.60;;;;;;5064834;28;20086;-67
2023/10/05 02:04:43;;;;;;;10.65;3.03;;;14.00;99.50;;;;;;5064821;28;20064;-67
2023/10/05 02:07:11;;;;;;;7.70;2.78;;;13.90;99.60;;;;;;5066053;28;20081;-67
2023/10/05 02:09:38;;;;;;;10.25;3.42;;;14.00;99.60;;;;;;5053339;28;20034;-67
2023/10/05 02:12:06;;;;;;;7.32;2.78;;;14.00;99.50;;;;;;5064558;28;20781;-67
2023/10/05 02:14:34;;;;;;;5.60;2.45;;;14.10;99.50;;;;;;5064620;28;20033;-67
2023/10/05 02:17:00;;;;;;;7.25;2.55;;;14.10;99.40;;;;;;5066109;28;20035;-67
2023/10/05 02:19:26;;;;;;;6.45;2.65;;;14.10;99.20;;;;;;5064457;28;20695;-67
2023/10/05 02:21:54;;;;;;;11.07;2.88;;;14.10;99.10;;;;;;5064518;28;20043;-67
2023/10/05 02:24:25;;;;;;;5.65;2.70;;;14.20;99.20;;;;;;5063717;28;20210;-67
2023/10/05 02:29:27;;;;;;;;;;;14.20;99.10;;;;;;5062892;28;20037;-62
2023/10/05 02:34:21;;;;;;;8.55;2.72;;;14.20;99.20;;;;;;5057636;28;20028;-61
2023/10/05 02:36:48;;;;;;;12.20;3.67;;;14.20;99.10;;;;;;5063337;28;20024;-62
2023/10/05 02:39:14;;;;;;;6.53;2.80;;;14.10;99.10;;;;;;5055565;28;20035;-61
2023/10/05 02:41:42;;;;;;;7.75;2.80;;;14.10;99.10;;;;;;5060415;28;20058;-62
2023/10/05 02:44:27;;;;;;;8.55;3.00;;;14.10;99.10;;;;;;5062675;28;20033;-61
2023/10/05 02:46:53;;;;;;;8.57;3.28;;;14.20;99.20;;;;;;5062568;28;20039;-61
2023/10/05 02:49:22;;;;;;;9.65;2.92;;;14.20;99.00;;;;;;5056421;28;20127;-62
2023/10/05 02:51:52;;;;;;;7.32;2.58;;;14.10;99.00;;;;;;5060317;28;20071;-61
2023/10/05 02:54:18;;;;;;;13.07;3.35;;;14.10;99.30;;;;;;5057392;28;20526;-62
2023/10/05 02:56:44;;;;;;;7.45;2.72;;;14.00;99.40;;;;;;5063596;28;20066;-61
2023/10/05 02:59:10;;;;;;;9.48;2.90;;;14.10;99.40;;;;;;5057265;28;20112;-62
2023/10/05 03:01:37;;;;;;;5.65;2.53;;;14.10;99.30;;;;;;5059031;28;20097;-61
2023/10/05 03:04:09;;;;;;;7.30;2.85;;;14.10;99.20;;;;;;5039795;28;20039;-61
2023/10/05 03:06:36;;;;;;;9.13;3.20;;;14.10;99.10;;;;;;5063074;28;20035;-62
2023/10/05 03:09:08;;;;;;;10.90;2.95;;;14.10;99.10;;;;;;5057944;28;20455;-62
2023/10/05 03:11:40;;;;;;;7.72;2.80;;;14.10;99.20;;;;;;5075485;28;20056;-61
2023/10/05 03:14:12;;;;;;;11.02;3.05;;;14.00;99.30;;;;;;5058945;28;20020;-62
2023/10/05 03:16:43;;;;;;;5.63;2.45;;;14.10;99.30;;;;;;5061000;28;20025;-61
2023/10/05 03:19:15;;;;;;;11.68;3.33;;;14.10;99.30;;;;;;5055814;28;20044;-61
2023/10/05 03:21:43;;;;;;;8.88;2.92;;;14.10;99.20;;;;;;5060748;28;20037;-61
2023/10/05 03:24:13;;;;;;;7.50;2.90;;;14.10;99.30;;;;;;5060042;28;20044;-62
2023/10/05 03:26:40;;;;;;;7.47;2.65;;;14.10;99.40;;;;;;5058757;28;20369;-62
2023/10/05 03:29:15;;;;;;;6.55;2.30;;;14.10;99.40;;;;;;5057480;28;20035;-61
2023/10/05 03:31:53;;;;;;;8.40;2.70;;;14.10;99.20;;;;;;5056927;28;20029;-62
2023/10/05 03:34:26;;;;;;;11.90;3.05;;;14.20;99.30;;;;;;5053060;28;20029;-62
2023/10/05 03:36:52;;;;;;;8.35;3.08;;;14.20;99.20;;;;;;5062482;28;20674;-62
2023/10/05 03:39:18;;;;;;;7.20;2.67;;;14.10;99.20;;;;;;5050201;28;20037;-61
2023/10/05 03:41:44;;;;;;;8.32;2.78;;;14.10;99.10;;;;;;5062981;28;20087;-62
2023/10/05 03:44:15;;;;;;;7.40;3.25;;;14.00;99.40;;;;;;5052539;28;20035;-62
2023/10/05 03:46:48;;;;;;;6.45;2.25;;;14.00;99.60;;;;;;5073978;28;20056;-62
2023/10/05 03:49:15;;;;;;;5.97;2.50;;;14.00;99.60;;;;;;5056351;28;20144;-61
2023/10/05 03:51:49;;;;;;;7.07;2.72;;;13.90;99.70;;;;;;5062723;28;20115;-61
2023/10/05 03:54:21;;;;;;;10.03;2.87;;;13.90;99.60;;;;;;5055296;28;20025;-62
2023/10/05 03:57:04;;;;;;;5.40;2.50;;;13.90;99.70;;;;;;5058930;28;20107;-61
2023/10/05 03:59:33;;;;;;;12.10;3.10;;;13.90;99.60;;;;;;5071477;28;20036;-61
2023/10/05 04:02:00;;;;;;;8.48;3.42;;;13.80;99.70;;;;;;5061501;28;20052;-61
2023/10/05 04:04:28;;;;;;;8.38;3.15;;;13.90;99.80;;;;;;5053730;28;20060;-62
2023/10/05 04:06:54;;;;;;;9.80;2.92;;;13.90;99.80;;;;;;5062562;28;20040;-62
2023/10/05 04:09:20;;;;;;;11.65;3.15;;;13.90;99.70;;;;;;5054801;28;20377;-62
2023/10/05 04:11:46;;;;;;;7.50;2.70;;;13.90;99.80;;;;;;5060844;28;20040;-61
2023/10/05 04:14:12;;;;;;;9.18;2.90;;;13.90;99.70;;;;;;5054387;28;20075;-61
2023/10/05 04:16:38;;;;;;;8.15;2.70;;;13.90;99.60;;;;;;5058017;28;20124;-61
2023/10/05 04:19:04;;;;;;;8.57;2.90;;;13.90;99.70;;;;;;5055390;28;20059;-62
2023/10/05 04:21:32;;;;;;;5.65;2.80;;;13.90;99.90;;;;;;5055948;28;20837;-62
2023/10/05 04:23:59;;;;;;;7.07;3.17;;;13.90;99.80;;;;;;5055873;28;20102;-61
2023/10/05 04:26:34;;;;;;;7.45;3.10;;;13.90;99.80;;;;;;5060757;28;20025;-62
2023/10/05 04:29:04;;;;;;;6.75;2.65;;;13.90;99.80;;;;;;5056002;28;20032;-62
2023/10/05 04:31:31;;;;;;;7.50;2.80;;;13.90;99.60;;;;;;5060405;28;20599;-62
2023/10/05 04:33:57;;;;;;;8.82;3.13;;;13.90;99.50;;;;;;5056468;28;20413;-62
2023/10/05 04:36:24;;;;;;;8.05;2.53;;;13.90;99.60;;;;;;5060343;28;20024;-62
2023/10/05 04:38:54;;;;;;;11.10;3.15;;;13.90;99.70;;;;;;5060411;28;20760;-62
2023/10/05 04:41:28;;;;;;;11.27;3.20;;;13.90;99.60;;;;;;5063110;28;20178;-62
2023/10/05 04:43:55;;;;;;;7.28;2.88;;;13.90;99.60;;;;;;5058202;28;20120;-62
2023/10/05 04:46:21;;;;;;;9.48;3.05;;;13.90;99.60;;;;;;5062644;28;20025;-62
2023/10/05 04:49:01;;;;;;;11.88;3.20;;;13.90;99.70;;;;;;5063019;28;20036;-62
2023/10/05 04:51:35;;;;;;;8.40;2.85;;;13.80;99.70;;;;;;5063668;28;20048;-61
2023/10/05 04:54:01;;;;;;;7.53;2.92;;;13.70;99.90;;;;;;5059122;28;20032;-62
2023/10/05 05:07:06;;;;;;;10.00;2.67;;;14.00;99.60;;;;;;5063965;28;20033;-62
2023/10/05 05:09:34;;;;;;;10.63;2.97;;;14.00;99.80;;;;;;5059419;28;20055;-62
2023/10/05 05:12:08;;;;;;;12.63;3.28;;;13.90;99.90;;;;;;5059600;28;20036;-62
2023/10/05 05:14:37;;;;;;;8.65;3.45;;;13.90;99.90;;;;;;5061710;28;20063;-62
2023/10/05 05:17:06;;;;;;;11.35;3.50;;;13.90;99.90;;;;;;5061504;28;20143;-62
2023/10/05 05:19:32;;;;;;;11.10;2.72;;;13.90;99.90;;;;;;5059250;28;20037;-62
2023/10/05 05:22:02;;;;;;;12.20;2.95;;;13.90;99.90;;;;;;5064233;28;20025;-62
2023/10/05 05:24:29;;;;;;;6.13;2.92;;;13.80;99.90;;;;;;5057121;28;20442;-62
2023/10/05 05:27:03;;;;;;;8.98;3.58;;;13.80;99.90;;;;;;5060346;28;20040;-62
2023/10/05 05:29:33;;;;;;;7.03;2.92;;;13.80;99.90;;;;;;5061133;28;20044;-62
2023/10/05 05:32:09;;;;;;;8.68;2.75;;;13.80;99.90;;;;;;5061197;28;20043;-62
2023/10/05 05:34:36;;;;;;;8.75;3.03;;;13.80;99.90;;;;;;5058742;28;20110;-62
2023/10/05 05:37:02;;;;;;;11.52;3.63;;;13.80;99.90;;;;;;5063209;28;20036;-62
2023/10/05 05:39:27;;;;;;;11.27;3.08;;;13.90;99.90;;;;;;5058003;28;20048;-62
2023/10/05 05:41:59;;;;;;;7.32;3.22;;;13.90;99.90;;;;;;5060512;28;20529;-62
2023/10/05 05:44:28;;;;;;;7.72;3.08;;;13.90;99.90;;;;;;5056150;28;20037;-62
2023/10/05 05:46:59;;;;;;;11.00;3.28;;;13.90;99.90;;;;;;5064297;28;20032;-62
2023/10/05 05:49:27;;;;;;;9.38;3.22;;;13.90;99.90;;;;;;5051394;28;20111;-62
2023/10/05 05:51:53;;;;;;;9.02;3.20;;;14.00;99.90;;;;;;5054874;28;20520;-62
2023/10/05 05:54:18;;;;;;;8.32;2.90;;;14.00;99.90;;;;;;5057800;28;20063;-63
2023/10/05 05:56:44;;;;;;;9.90;3.35;;;14.00;99.90;;;;;;5061025;28;20016;-62
2023/10/05 05:59:12;;;;;;;11.95;3.08;;;14.10;99.90;;;;;;5052889;28;20108;-62
2023/10/05 06:01:37;;;;;;;8.02;3.10;;;14.10;99.90;;;;;;5054484;28;20036;-63
2023/10/05 06:04:04;;;;;;;7.63;3.17;;;14.10;99.90;;;;;;5058620;28;20589;-62
2023/10/05 06:06:30;;;;;;;11.52;3.45;;;14.10;99.90;;;;;;5056216;28;20805;-62
2023/10/05 06:08:56;;;;;;;7.30;2.90;;;14.20;99.90;;;;;;5059752;28;20036;-62
2023/10/05 06:11:23;;;;;;;10.05;2.95;;;14.30;99.90;;;;;;5062493;28;20033;-62
2023/10/05 06:13:49;;;;;;;10.20;3.40;;;14.30;99.90;;;;;;5061406;28;20135;-62
2023/10/05 06:16:15;;;;;;;9.32;2.70;;;14.30;99.90;;;;;;5052617;28;20053;-63
2023/10/05 06:18:41;;;;;;;11.15;3.17;;;14.40;99.90;;;;;;5058202;28;20074;-62
2023/10/05 06:21:06;;;;;;;7.35;3.10;;;14.50;99.90;;;;;;5062504;28;20028;-62
2023/10/05 06:23:34;;;;;;;12.93;3.00;;;14.60;99.90;;;;;;5059014;28;20043;-62
2023/10/05 06:26:03;;;;;;;8.93;3.38;;;14.70;99.70;;;;;;5054174;28;20109;-62
2023/10/05 06:28:32;;;;;;;9.55;2.95;;;14.80;99.70;;;;;;5058023;28;20047;-62
2023/10/05 06:30:58;;;;;;;11.93;3.55;;;14.80;99.50;;;;;;5061171;28;20439;-62
2023/10/05 06:33:25;;;;;;;10.63;3.55;;;14.90;99.50;;;;;;5055591;28;20020;-63
2023/10/05 06:35:51;;;;;;;9.07;2.97;;;14.90;99.30;;;;;;5059417;28;20056;-62
2023/10/05 06:38:17;;;;;;;7.30;3.10;;;15.00;99.10;;;;;;5054316;28;20082;-62
2023/10/05 06:40:42;;;;;;;8.38;3.10;;;15.10;99.30;;;;;;5062465;28;20028;-62
2023/10/05 06:43:09;;;;;;;6.68;3.00;;;15.00;99.10;;;;;;5061773;28;20488;-62
2023/10/05 06:45:39;;;;;;;7.53;3.60;;;15.00;99.30;;;;;;5057431;28;20037;-62
2023/10/05 06:48:06;;;;;;;8.07;2.42;;;15.10;99.00;;;;;;5059602;28;20136;-62
2023/10/05 06:50:32;;;;;;;9.30;3.00;;;15.00;99.00;;;;;;5056056;28;20032;-63
2023/10/05 06:52:58;;;;;;;9.07;3.10;;;15.10;99.40;;;;;;5061016;28;20020;-63
2023/10/05 06:55:24;;;;;;;7.10;2.55;;;15.20;99.10;;;;;;5049651;28;20104;-62
2023/10/05 06:57:50;;;;;;;7.35;3.25;;;15.20;99.00;;;;;;5060004;28;20097;-62
2023/10/05 07:00:21;;;;;;;7.32;2.60;;;15.20;98.90;;;;;;5051739;28;20021;-62
2023/10/05 07:02:53;;;;;;;7.10;2.67;;;15.20;98.80;;;;;;5053988;28;20107;-62
2023/10/05 07:05:20;;;;;;;6.20;2.70;;;15.30;98.80;;;;;;5051041;28;20633;-62
2023/10/05 07:07:46;;;;;;;8.55;3.22;;;15.30;98.90;;;;;;5061047;28;20032;-63
2023/10/05 07:10:14;;;;;;;7.95;2.50;;;15.20;99.00;;;;;;5056270;28;20103;-63
2023/10/05 07:12:48;;;;;;;7.00;2.75;;;15.20;98.60;;;;;;5060772;28;20033;-63
2023/10/05 07:15:15;;;;;;;6.10;2.97;;;15.30;99.00;;;;;;5054916;28;20075;-63
2023/10/05 07:17:41;;;;;;;12.07;2.80;;;15.30;98.80;;;;;;5060096;28;20021;-62
2023/10/05 07:20:16;;;;;;;8.57;2.83;;;15.30;98.90;;;;;;5054350;28;20040;-63
2023/10/05 07:22:43;;;;;;;7.22;2.28;;;15.40;98.70;;;;;;5059825;28;20141;-63
2023/10/05 07:25:14;;;;;;;8.38;2.25;;;15.50;98.70;;;;;;5055388;28;20079;-63
2023/10/05 07:27:43;;;;;;;12.85;2.83;;;15.50;98.30;;;;;;5059159;28;20035;-62
2023/10/05 07:30:10;;;;;;;9.88;3.10;;;15.60;98.60;;;;;;5055827;28;20103;-63
2023/10/05 07:32:37;;;;;;;9.57;2.70;;;15.60;98.00;;;;;;5060210;28;20734;-62
2023/10/05 07:35:05;;;;;;;9.05;2.13;;;15.60;98.20;;;;;;5058222;28;20028;-62
2023/10/05 07:37:31;;;;;;;6.88;2.08;;;15.60;98.10;;;;;;5062394;28;20029;-62
2023/10/05 07:40:00;;;;;;;7.03;2.20;;;15.60;98.20;;;;;;5056312;28;20040;-62
2023/10/05 07:42:28;;;;;;;5.97;2.17;;;15.60;98.40;;;;;;5057724;28;20060;-63
2023/10/05 07:44:54;;;;;;;8.50;2.35;;;15.70;98.40;;;;;;5057243;28;20143;-62
2023/10/05 07:47:21;;;;;;;8.60;3.47;;;15.80;98.00;;;;;;5057826;28;20132;-62
2023/10/05 07:49:47;;;;;;;14.95;2.65;;;15.80;98.00;;;;;;5058997;28;20128;-62
2023/10/05 07:52:14;;;;;;;8.38;2.63;;;15.90;98.00;;;;;;5058131;28;20588;-62
2023/10/05 07:54:40;;;;;;;10.32;2.13;;;15.90;98.00;;;;;;5055196;28;20072;-62
2023/10/05 07:57:10;;;;;;;8.88;2.70;;;15.90;98.10;;;;;;5058205;28;20754;-63
2023/10/05 07:59:40;;;;;;;7.63;2.50;;;16.00;98.10;;;;;;5058425;28;20060;-62
2023/10/05 08:02:07;;;;;;;7.65;2.13;;;16.10;97.90;;;;;;5058412;28;20071;-63
2023/10/05 08:04:33;;;;;;;7.15;2.53;;;16.10;98.10;;;;;;5051870;28;20055;-62
2023/10/05 08:06:59;;;;;;;6.50;1.98;;;16.10;98.20;;;;;;5057663;28;20373;-63
2023/10/05 08:09:27;;;;;;;7.90;2.30;;;16.10;98.00;;;;;;5056132;28;20060;-62
2023/10/05 08:11:53;;;;;;;6.30;2.30;;;16.10;97.90;;;;;;5052361;28;20050;-62
2023/10/05 08:14:20;;;;;;;8.88;1.92;;;16.10;97.90;;;;;;5060547;28;20035;-62
2023/10/05 08:16:48;;;;;;;12.25;2.80;;;16.20;97.80;;;;;;5059813;28;20028;-62
2023/10/05 08:19:15;;;;;;;8.77;2.65;;;16.40;97.90;;;;;;5061496;28;20028;-63
2023/10/05 08:21:42;;;;;;;7.40;2.53;;;16.60;98.10;;;;;;5060529;28;20042;-63
2023/10/05 08:24:08;;;;;;;10.45;2.60;;;16.80;97.40;;;;;;5061697;28;20028;-63
2023/10/05 08:26:35;;;;;;;5.63;2.30;;;16.90;96.70;;;;;;5057255;28;20045;-67
2023/10/05 08:29:01;;;;;;;6.63;2.63;;;16.90;96.60;;;;;;5064805;28;20025;-62
2023/10/05 08:31:28;;;;;;;9.10;2.13;;;16.80;97.00;;;;;;5059463;28;20111;-62
2023/10/05 08:33:54;;;;;;;11.82;2.78;;;16.80;96.90;;;;;;5065100;28;20024;-63
2023/10/05 08:36:20;;;;;;;8.13;2.50;;;17.00;96.90;;;;;;5059799;28;20029;-62
2023/10/05 08:38:48;;;;;;;7.32;2.25;;;17.20;96.70;;;;;;5060267;28;20029;-62
2023/10/05 08:41:31;;;;;;;8.93;2.30;;;17.20;96.20;;;;;;5056945;28;20566;-62
2023/10/05 08:44:10;;;;;;;6.70;2.13;;;17.30;96.30;;;;;;5062860;28;20114;-62
2023/10/05 08:46:41;;;;;;;8.02;2.50;;;17.40;96.30;;;;;;5058151;28;20044;-62
2023/10/05 08:49:10;;;;;;;10.13;2.30;;;17.30;96.20;;;;;;5064244;28;20035;-63
2023/10/05 08:51:37;;;;;;;13.82;2.20;;;17.30;96.00;;;;;;5057878;28;20048;-63
2023/10/05 08:54:09;;;;;;;10.50;2.40;;;17.40;95.90;;;;;;5062461;28;20854;-64
2023/10/05 08:56:40;;;;;;;5.88;1.75;;;17.50;96.30;;;;;;5058161;28;20040;-63
2023/10/05 08:59:13;;;;;;;8.13;2.55;;;17.70;96.00;;;;;;5062299;28;20021;-63
2023/10/05 09:01:43;;;;;;;10.45;2.25;;;17.80;96.00;;;;;;5057701;28;20040;-63
2023/10/05 09:06:56;;;;;;;10.15;2.63;;;18.10;95.10;;;;;;5058491;28;20039;-63
2023/10/05 09:09:52;;;;;;;8.70;2.15;;;18.20;95.20;;;;;;5048173;28;21009;-62
2023/10/05 09:12:35;;;;;;;9.05;2.67;;;18.30;95.20;;;;;;5063809;28;20033;-62
2023/10/05 09:15:05;;;;;;;7.40;2.35;;;18.20;94.60;;;;;;5059135;28;20526;-62
2023/10/05 09:17:37;;;;;;;5.50;2.05;;;18.20;94.90;;;;;;5059013;28;20046;-62
2023/10/05 09:20:23;;;;;;;9.90;2.40;;;18.40;95.20;;;;;;5061271;28;20703;-62
2023/10/05 09:22:53;;;;;;;7.38;2.25;;;18.60;95.10;;;;;;5062928;28;20090;-62
2023/10/05 09:25:27;;;;;;;10.45;2.13;;;18.70;94.20;;;;;;5057137;28;20033;-62
2023/10/05 09:27:55;;;;;;;7.97;2.08;;;18.80;94.30;;;;;;5057801;28;20082;-63
2023/10/05 09:30:26;;;;;;;10.65;4.10;;;18.90;94.30;;;;;;5058714;28;20114;-62
2023/10/05 09:33:06;;;;;;;10.68;2.75;;;19.00;94.20;;;;;;5060771;28;20037;-62
2023/10/05 09:35:31;;;;;;;3.88;1.83;;;19.10;93.70;;;;;;5062352;28;20072;-62
2023/10/05 09:37:58;;;;;;;7.45;3.05;;;19.20;93.60;;;;;;5061179;28;20097;-63
2023/10/05 09:40:28;;;;;;;5.88;2.13;;;19.20;93.30;;;;;;5060873;28;20040;-63
2023/10/05 09:43:00;;;;;;;7.22;2.20;;;19.10;92.80;;;;;;5059803;28;20040;-63
2023/10/05 09:45:30;;;;;;;6.45;2.17;;;19.10;92.90;;;;;;5058264;28;20540;-63
2023/10/05 09:48:00;;;;;;;5.35;1.92;;;19.00;93.00;;;;;;5061209;28;20048;-63
2023/10/05 09:50:29;;;;;;;6.10;1.60;;;19.00;93.10;;;;;;5058525;28;20028;-62
2023/10/05 09:52:59;;;;;;;7.85;2.25;;;19.20;92.40;;;;;;5054182;28;20039;-63
2023/10/05 09:55:29;;;;;;;4.72;1.80;;;19.30;92.60;;;;;;5058781;28;20112;-63
2023/10/05 09:58:05;;;;;;;6.13;1.98;;;19.30;92.10;;;;;;5058855;28;20028;-62
2023/10/05 10:03:04;;;;;;;8.95;2.22;;;19.20;92.10;;;;;;5056295;28;20085;-62
2023/10/05 10:05:36;;;;;;;9.13;1.90;;;19.00;91.90;;;;;;5059386;28;20538;-63
2023/10/05 10:08:27;;;;;;;8.40;2.80;;;18.90;92.20;;;;;;5060600;28;20492;-62
2023/10/05 10:11:03;;;;;;;6.35;1.88;;;18.90;92.90;;;;;;5058418;28;20033;-63
2023/10/05 10:13:39;;;;;;;6.75;1.77;;;18.90;93.10;;;;;;5057152;28;20047;-63
2023/10/05 10:16:26;;;;;;;6.35;2.15;;;18.90;92.80;;;;;;5057224;28;20029;-62
2023/10/05 10:19:07;;;;;;;6.90;1.80;;;18.90;92.60;;;;;;5055347;28;20024;-62
2023/10/05 10:21:46;;;;;;;4.13;1.88;;;18.80;92.50;;;;;;5058275;28;20064;-62
2023/10/05 10:24:19;;;;;;;5.60;2.10;;;18.70;92.60;;;;;;5062256;28;20028;-62
2023/10/05 10:26:59;;;;;;;3.75;1.88;;;18.60;92.30;;;;;;5057925;28;20067;-63
2023/10/05 10:29:39;;;;;;;8.30;1.92;;;18.50;92.70;;;;;;5057979;28;20040;-63
2023/10/05 10:32:35;;;;;;;8.18;2.65;;;18.50;93.10;;;;;;5054960;28;20545;-63
2023/10/05 10:35:26;;;;;;;6.70;2.20;;;18.50;93.30;;;;;;5055670;28;20033;-63
2023/10/05 10:37:54;;;;;;;9.65;2.50;;;18.40;92.60;;;;;;5062597;28;20052;-63
2023/10/05 10:45:29;;;;;;;7.32;2.40;;;18.20;93.90;;;;;;5057917;28;20119;-63
2023/10/05 10:47:56;;;;;;;6.75;2.08;;;18.20;94.10;;;;;;5057243;28;20035;-63
2023/10/05 10:50:35;;;;;;;4.65;2.03;;;18.20;94.10;;;;;;5058947;28;20043;-63
2023/10/05 10:53:16;;;;;;;6.60;1.85;;;18.30;93.70;;;;;;5056773;28;20033;-63
2023/10/05 10:56:17;;;;;;;6.15;2.15;;;18.20;93.60;;;;;;5060803;28;20032;-63
2023/10/05 10:58:44;;;;;;;6.20;2.22;;;18.20;93.50;;;;;;5058863;28;20748;-63
2023/10/05 11:01:28;;;;;;;5.10;2.55;;;18.20;93.80;;;;;;5057524;28;20067;-63
2023/10/05 11:04:04;;;;;;;5.85;1.98;;;18.20;93.90;;;;;;5054767;28;20028;-63
2023/10/05 11:06:30;;;;;;;6.35;2.00;;;18.20;93.80;;;;;;5055503;28;20397;-63
2023/10/05 11:09:09;;;;;;;5.90;2.20;;;18.20;93.60;;;;;;5058585;28;20028;-63
2023/10/05 11:11:38;;;;;;;4.45;1.83;;;18.20;93.70;;;;;;5056244;28;20041;-63
2023/10/05 11:14:07;;;;;;;6.20;2.08;;;18.30;93.80;;;;;;5061670;28;20037;-63
2023/10/05 11:16:45;;;;;;;5.00;2.08;;;18.40;94.00;;;;;;5057727;28;20125;-64
2023/10/05 11:19:13;;;;;;;6.40;2.00;;;18.40;93.70;;;;;;5058389;28;20033;-63
2023/10/05 11:21:45;;;;;;;6.38;2.13;;;18.40;94.10;;;;;;5060661;28;20037;-63
2023/10/05 11:24:15;;;;;;;5.78;1.70;;;18.40;94.00;;;;;;5057573;28;20032;-63
2023/10/05 11:29:29;;;;;;;4.68;2.00;;;18.40;93.90;;;;;;5055002;28;20197;-63
2023/10/05 11:32:01;;;;;;;8.82;2.22;;;18.40;94.30;;;;;;5057308;28;20627;-63
2023/10/05 11:34:39;;;;;;;7.40;1.83;;;18.30;94.10;;;;;;5054518;28;20035;-63
2023/10/05 11:37:18;;;;;;;3.10;1.60;;;18.40;94.40;;;;;;5058168;28;20111;-63
2023/10/05 11:39:50;;;;;;;5.22;1.92;;;18.40;94.10;;;;;;5057266;28;20028;-63
2023/10/05 11:42:27;;;;;;;7.63;2.33;;;18.40;94.20;;;;;;5056017;28;20476;-63
2023/10/05 11:45:00;;;;;;;3.67;1.70;;;18.40;93.90;;;;;;5054944;28;20095;-63
2023/10/05 11:47:35;;;;;;;3.33;2.15;;;18.30;94.00;;;;;;5053082;28;20029;-63
2023/10/05 11:50:32;;;;;;;3.33;1.75;;;18.20;94.30;;;;;;5056897;28;20373;-63
2023/10/05 11:52:58;;;;;;;;;;;18.20;94.50;;;;;;5057619;28;20024;-63
2023/10/05 11:55:24;;;;;;;4.88;1.90;;;18.20;94.50;;;;;;5056169;28;19912;-63
2023/10/05 11:57:52;;;;;;;5.47;2.28;;;18.30;94.60;;;;;;5058215;28;20533;-63
2023/10/05 12:00:18;;;;;;;7.40;1.95;;;18.30;94.20;;;;;;5055483;28;20021;-65
2023/10/05 12:02:44;;;;;;;8.43;2.33;;;18.40;94.40;;;;;;5059221;28;20040;-63
2023/10/05 12:05:11;;;;;;;5.35;2.53;;;18.30;94.60;;;;;;5059724;28;20025;-63
2023/10/05 12:07:41;;;;;;;3.80;2.13;;;18.40;95.30;;;;;;5053525;28;20044;-63
2023/10/05 12:10:09;;;;;;;5.65;2.85;;;18.40;95.50;;;;;;5054261;28;20075;-63
2023/10/05 12:12:41;;;;;;;7.70;2.60;;;18.30;95.30;;;;;;5057284;28;20079;-63
2023/10/05 12:15:17;;;;;;;6.28;3.05;;;18.10;95.90;;;;;;5056092;28;20032;-63
2023/10/05 12:17:46;;;;;;;9.05;3.53;;;18.10;96.30;;;;;;5056757;28;20083;-63
2023/10/05 12:20:15;;;;;;;5.65;2.83;;;18.00;96.50;;;;;;5054021;28;20029;-63
2023/10/05 12:22:42;;;;;;;9.68;3.70;;;18.00;96.90;;;;;;5055579;28;20036;-63
2023/10/05 12:25:09;;;;;;;3.92;2.47;;;18.00;97.00;;;;;;5058893;28;20116;-63
2023/10/05 12:27:35;;;;;;;3.33;2.35;;;17.90;96.50;;;;;;5055517;28;20021;-62
2023/10/05 12:30:11;;;;;;;7.15;3.20;;;17.90;96.70;;;;;;5015412;28;20921;-67
2023/10/05 12:32:40;;;;;;;10.33;2.80;;;17.90;96.50;;;;;;4966887;28;20028;-66
2023/10/05 12:35:16;;;;;;;7.45;3.00;;;17.90;96.60;;;;;;5044565;28;20112;-67
2023/10/05 12:37:44;;;;;;;7.80;2.60;;;17.90;96.90;;;;;;5062146;28;20083;-66
2023/10/05 12:40:26;;;;;;;5.32;2.10;;;18.00;96.90;;;;;;5058923;28;20618;-66
2023/10/05 12:42:52;;;;;;;7.38;2.80;;;18.00;96.70;;;;;;5024577;28;20110;-65
2023/10/05 12:45:25;;;;;;;5.57;2.80;;;18.10;96.70;;;;;;5023993;28;20035;-66
2023/10/05 12:47:54;;;;;;;8.15;2.95;;;18.10;96.60;;;;;;5050856;28;20036;-66
2023/10/05 12:50:30;;;;;;;7.15;2.97;;;18.30;96.50;;;;;;5055222;28;20035;-66
2023/10/05 12:52:58;;;;;;;4.45;2.25;;;18.40;96.30;;;;;;5049358;28;20035;-65
2023/10/05 12:55:29;;;;;;;9.55;2.33;;;18.50;95.70;;;;;;5059157;28;20025;-65
2023/10/05 12:57:55;;;;;;;6.18;2.67;;;18.50;95.60;;;;;;5061331;28;20028;-66
2023/10/05 13:00:31;;;;;;;8.95;2.90;;;18.50;95.00;;;;;;5064510;28;20570;-66
2023/10/05 13:03:00;;;;;;;6.43;2.65;;;18.40;94.90;;;;;;5055896;28;20032;-67
2023/10/05 13:05:31;;;;;;;5.38;2.22;;;18.40;94.40;;;;;;5054053;28;20032;-68
2023/10/05 13:08:03;;;;;;;8.90;2.83;;;18.30;94.80;;;;;;5065659;28;20028;-67
2023/10/05 13:10:32;;;;;;;7.55;2.70;;;18.30;94.40;;;;;;5064947;28;20048;-67
2023/10/05 13:13:00;;;;;;;7.85;2.60;;;18.20;94.50;;;;;;5063978;28;20029;-68
2023/10/05 13:15:33;;;;;;;7.05;2.40;;;18.10;94.70;;;;;;5064802;28;20041;-68
2023/10/05 13:18:15;;;;;;;10.65;2.72;;;18.10;95.00;;;;;;5058378;28;20028;-68
2023/10/05 13:20:43;;;;;;;3.05;2.10;;;18.10;94.90;;;;;;5063062;28;20025;-69
2023/10/05 13:23:11;;;;;;;2.95;1.45;;;18.00;96.60;;;;;;5060829;28;20492;-68
2023/10/05 13:25:40;;;;;;;3.53;0.65;;;17.80;98.20;;;;;;5064283;28;20043;-69
2023/10/05 13:28:11;;;;;;;1.63;0.70;;;17.60;98.70;;;;;;5064027;28;20118;-69
2023/10/05 13:30:43;;;;;;;0.50;0.50;;;17.30;99.20;;;;;;5067202;28;20052;-69
2023/10/05 13:33:24;;;;;;;0.20;0.20;;;17.10;99.40;;;;;;5066738;28;20024;-67
2023/10/05 13:35:53;;;;;;;1.95;1.08;;;16.90;99.50;;;;;;5066809;28;20074;-67
2023/10/05 13:38:24;;;;;;;3.80;2.10;;;16.80;99.80;;;;;;5066811;28;20597;-68
2023/10/05 13:41:07;;;;;;;2.47;1.67;;;16.80;99.90;;;;;;5065439;28;20044;-67